Time;durP1;ratioP1;P1;durP2;ratioP2;P2;SDS_P1;SDS_P2;PMS_P1;PMS_P2;Temp;Humidity;BMP_temperature;BMP_pressure;BME280_temperature;BME280_humidity;BME280_pressure;Samples;Min_cycle;Max_cycle;Signal;HPM_P1;HPM_P2
2022/09/04 00:00:11;;;;;;;12.57;3.90;;;;;;;21.32;49.12;98886.09;4500313;31;20114;-82
2022/09/04 00:03:02;;;;;;;10.55;3.87;;;;;;;21.41;48.62;98887.03;4502682;31;20098;-82
2022/09/04 00:05:36;;;;;;;9.60;4.10;;;;;;;21.14;49.20;98883.38;4502648;31;20359;-82
2022/09/04 00:08:13;;;;;;;10.48;4.12;;;;;;;21.28;48.80;98891.91;4502601;31;20364;-82
2022/09/04 00:11:03;;;;;;;10.73;4.60;;;;;;;21.14;49.37;98893.25;4502562;31;20523;-82
2022/09/04 00:14:17;;;;;;;12.23;4.68;;;;;;;21.10;49.80;98895.37;4502486;31;20084;-82
2022/09/04 00:16:43;;;;;;;13.07;5.53;;;;;;;21.28;49.40;98892.75;4409590;32;20199;-82
2022/09/04 00:19:24;;;;;;;10.13;5.00;;;;;;;21.28;49.45;98891.91;4422250;32;20117;-82
2022/09/04 00:21:55;;;;;;;11.20;5.55;;;;;;;21.36;49.30;98892.00;4409465;32;20117;-82
2022/09/04 00:24:23;;;;;;;14.50;5.53;;;;;;;21.31;49.47;98897.81;4422173;32;20081;-82
2022/09/04 00:26:53;;;;;;;12.20;5.60;;;;;;;21.15;49.90;98902.97;4409459;32;20117;-82
2022/09/04 00:29:35;;;;;;;12.25;5.57;;;;;;;21.23;49.73;98899.53;4409520;32;20109;-82
2022/09/04 00:32:40;;;;;;;13.62;5.50;;;;;;;21.26;49.75;98909.97;4422282;32;20097;-82
2022/09/04 00:35:30;;;;;;;12.32;5.18;;;;;;;21.14;49.97;98904.81;4420684;32;20167;-82
2022/09/04 00:38:02;;;;;;;11.82;5.40;;;;;;;21.21;49.77;98910.44;4409782;32;20595;-82
2022/09/04 00:40:34;;;;;;;13.73;5.15;;;;;;;21.20;49.81;98906.88;4422160;32;20551;-82
2022/09/04 00:43:19;;;;;;;10.65;5.15;;;;;;;21.27;49.73;98904.47;4396589;32;20147;-82
2022/09/04 00:46:03;;;;;;;12.55;5.20;;;;;;;21.29;49.86;98904.34;4421978;32;20104;-82
2022/09/04 00:48:47;;;;;;;11.75;5.20;;;;;;;21.30;49.77;98908.69;4473220;31;20135;-82
2022/09/04 00:51:16;;;;;;;12.52;5.45;;;;;;;21.36;49.66;98902.72;4502023;31;20114;-81
2022/09/04 00:54:13;;;;;;;11.20;5.07;;;;;;;21.43;49.61;98906.50;4487638;31;20466;-81
2022/09/04 00:56:54;;;;;;;11.60;4.87;;;;;;;21.45;49.62;98909.91;4487364;31;20092;-81
2022/09/04 00:59:41;;;;;;;9.80;4.72;;;;;;;21.51;49.48;98920.00;4501915;31;20122;-81
2022/09/04 01:02:18;;;;;;;9.88;4.62;;;;;;;21.55;49.07;98925.94;4503980;31;20195;-81
2022/09/04 01:05:02;;;;;;;10.95;4.43;;;;;;;21.48;48.82;98916.78;4503927;31;20088;-81
2022/09/04 01:07:46;;;;;;;9.73;4.43;;;;;;;21.36;48.85;98921.47;4489692;31;20110;-81
2022/09/04 01:10:18;;;;;;;9.65;4.40;;;;;;;21.37;48.80;98917.81;4489468;31;20104;-82
2022/09/04 01:13:05;;;;;;;13.38;4.65;;;;;;;21.34;48.76;98923.47;4503914;31;20092;-82
2022/09/04 01:15:38;;;;;;;10.77;4.70;;;;;;;21.35;48.80;98920.66;4489617;31;20118;-82
2022/09/04 01:18:29;;;;;;;10.40;4.30;;;;;;;21.33;48.76;98924.47;4489870;31;20093;-81
2022/09/04 01:21:18;;;;;;;10.55;4.65;;;;;;;21.37;48.67;98929.38;4489401;31;20164;-81
2022/09/04 01:24:01;;;;;;;14.23;5.15;;;;;;;21.37;48.77;98928.53;4489775;31;20179;-81
2022/09/04 01:26:45;;;;;;;10.32;5.12;;;;;;;21.30;48.74;98935.47;4503915;31;20107;-81
2022/09/04 01:29:14;;;;;;;12.27;5.45;;;;;;;21.29;48.68;98931.97;4476259;31;20080;-81
2022/09/04 01:31:57;;;;;;;15.30;5.37;;;;;;;21.29;48.81;98931.12;4503681;31;20101;-81
2022/09/04 01:34:44;;;;;;;12.25;5.20;;;;;;;21.21;49.18;98932.72;4489430;31;20108;-81
2022/09/04 01:37:48;;;;;;;12.68;5.03;;;;;;;21.29;49.28;98933.81;4489470;31;20092;-81
2022/09/04 01:40:33;;;;;;;11.07;4.90;;;;;;;21.31;49.50;98938.03;4503598;31;20507;-81
2022/09/04 01:43:17;;;;;;;11.57;4.68;;;;;;;21.35;49.52;98942.09;4503608;31;20103;-82
2022/09/04 01:46:03;;;;;;;11.02;4.78;;;;;;;21.32;49.67;98947.72;4503628;31;20121;-81
2022/09/04 01:48:38;;;;;;;10.70;4.30;;;;;;;21.36;49.70;98956.31;4503712;31;20588;-80
2022/09/04 01:51:43;;;;;;;11.05;4.90;;;;;;;21.33;49.88;98957.47;4489295;31;20462;-81
2022/09/04 01:54:31;;;;;;;11.88;4.87;;;;;;;21.34;49.92;98956.50;4489177;31;20108;-81
2022/09/04 01:57:19;;;;;;;11.10;4.20;;;;;;;21.34;50.05;98952.94;4489076;31;20108;-81
2022/09/04 02:00:11;;;;;;;11.57;4.80;;;;;;;21.39;50.06;98950.69;4489530;31;20510;-81
2022/09/04 02:02:54;;;;;;;10.32;4.68;;;;;;;21.37;50.14;98955.34;4489254;31;20156;-81
2022/09/04 02:05:29;;;;;;;11.05;4.75;;;;;;;21.32;50.34;98945.03;4489193;31;20108;-81
2022/09/04 02:08:31;;;;;;;11.85;4.90;;;;;;;21.29;50.43;98956.09;4503709;31;20088;-81
2022/09/04 02:11:06;;;;;;;11.82;5.65;;;;;;;21.34;50.45;98960.97;4503800;31;20084;-81
2022/09/04 02:14:07;;;;;;;11.95;5.05;;;;;;;21.16;50.63;98966.28;4502650;31;20110;-81
2022/09/04 02:16:56;;;;;;;13.27;5.15;;;;;;;21.24;50.57;98953.00;4489439;31;20092;-81
2022/09/04 02:19:33;;;;;;;9.75;4.85;;;;;;;21.20;50.71;98952.44;4503356;31;20080;-81
2022/09/04 02:22:20;;;;;;;11.07;5.35;;;;;;;21.25;50.77;98951.16;4489025;31;20115;-81
2022/09/04 02:24:55;;;;;;;11.50;5.25;;;;;;;21.24;50.88;98955.66;4503323;31;20092;-81
2022/09/04 02:28:06;;;;;;;11.23;5.62;;;;;;;21.27;50.81;98958.06;4489029;31;20478;-81
2022/09/04 02:30:50;;;;;;;;;;;;;;;21.28;50.71;98953.53;4423787;32;20109;-81
2022/09/04 02:33:51;;;;;;;11.43;5.15;;;;;;;21.30;50.64;98952.38;4423533;32;20036;-81
2022/09/04 02:36:38;;;;;;;11.48;4.45;;;;;;;21.26;50.75;98953.69;4410755;32;20070;-81
2022/09/04 02:39:16;;;;;;;10.32;4.75;;;;;;;21.25;50.84;98952.00;4397684;32;20177;-81
2022/09/04 02:42:02;;;;;;;12.40;4.45;;;;;;;21.25;50.91;98965.41;4410382;32;20123;-81
2022/09/04 02:44:27;;;;;;;10.85;4.68;;;;;;;21.22;50.97;98957.66;4423056;32;20113;-81
2022/09/04 02:47:11;;;;;;;11.18;5.00;;;;;;;21.20;51.01;98955.13;4410174;32;20097;-81
2022/09/04 02:49:50;;;;;;;12.02;5.32;;;;;;;21.18;51.00;98954.44;4410550;32;20093;-81
2022/09/04 02:52:55;;;;;;;10.95;5.35;;;;;;;21.14;50.96;98950.34;4423145;32;20124;-81
2022/09/04 02:55:43;;;;;;;11.68;5.78;;;;;;;21.10;50.89;98953.50;4349777;32;20113;-81
2022/09/04 02:58:13;;;;;;;10.98;5.62;;;;;;;21.05;50.81;98961.09;4362760;32;20150;-83
2022/09/04 03:01:21;;;;;;;11.43;5.30;;;;;;;20.94;50.72;98960.31;4362530;32;20424;-83
2022/09/04 03:04:12;;;;;;;11.07;5.35;;;;;;;20.97;51.04;98959.16;4350594;32;20108;-84
2022/09/04 03:06:48;;;;;;;13.48;4.78;;;;;;;20.94;50.97;98954.94;4386658;32;20161;-82
2022/09/04 03:09:47;;;;;;;11.27;4.80;;;;;;;20.96;51.14;98958.31;4438273;32;20097;-82
2022/09/04 03:12:30;;;;;;;11.60;5.35;;;;;;;20.88;51.61;98957.34;4420305;32;20093;-82
2022/09/04 03:15:13;;;;;;;10.48;5.53;;;;;;;20.82;51.57;98958.78;4425344;32;20097;-83
2022/09/04 03:17:47;;;;;;;10.38;5.07;;;;;;;20.87;51.37;98958.34;4438305;32;20132;-83
2022/09/04 03:20:25;;;;;;;10.00;5.03;;;;;;;20.85;51.50;98960.34;4438300;32;20089;-83
2022/09/04 03:23:00;;;;;;;9.35;4.70;;;;;;;20.78;51.62;98958.25;4425378;32;20164;-83
2022/09/04 03:25:40;;;;;;;10.50;5.07;;;;;;;20.79;51.81;98956.41;4438083;32;20108;-83
2022/09/04 03:28:08;;;;;;;12.55;5.60;;;;;;;20.71;51.83;98954.44;4438250;32;20120;-84
2022/09/04 03:30:35;;;;;;;13.95;5.12;;;;;;;20.68;51.94;98954.72;4425355;32;20124;-84
2022/09/04 03:33:14;;;;;;;11.63;5.37;;;;;;;20.61;51.97;98965.16;4480339;31;20104;-84
2022/09/04 03:35:40;;;;;;;10.88;5.30;;;;;;;20.64;51.96;98957.84;4488526;31;20184;-83
2022/09/04 03:38:27;;;;;;;11.43;4.82;;;;;;;20.60;51.94;98967.97;4502697;31;20124;-83
2022/09/04 03:41:32;;;;;;;11.75;5.30;;;;;;;20.59;51.99;98971.59;4503140;31;20068;-83
2022/09/04 03:44:23;;;;;;;9.63;5.00;;;;;;;20.56;52.13;98978.09;4502808;31;20111;-82
2022/09/04 03:47:21;;;;;;;11.43;5.03;;;;;;;20.55;52.04;98981.78;4488533;31;20104;-83
2022/09/04 03:50:11;;;;;;;10.95;5.20;;;;;;;20.48;52.12;98987.84;4474587;31;20106;-82
2022/09/04 03:52:48;;;;;;;11.98;5.60;;;;;;;20.47;52.13;98983.47;4502895;31;20103;-83
2022/09/04 03:55:25;;;;;;;11.00;5.45;;;;;;;20.40;52.20;98985.88;4502356;31;20092;-83
2022/09/04 03:58:12;;;;;;;12.27;5.27;;;;;;;20.36;52.32;98989.81;4502695;31;20084;-83
2022/09/04 04:01:03;;;;;;;11.43;5.87;;;;;;;20.32;52.49;98989.25;4502640;31;20089;-83
2022/09/04 04:04:04;;;;;;;11.38;5.70;;;;;;;20.34;52.54;98994.44;4488343;31;20391;-83
2022/09/04 04:06:38;;;;;;;11.80;5.47;;;;;;;20.30;52.67;98995.72;4502629;31;20083;-83
2022/09/04 04:09:31;;;;;;;11.20;5.45;;;;;;;20.26;52.58;99002.34;4488252;31;20755;-83
2022/09/04 04:12:34;;;;;;;12.37;5.78;;;;;;;20.24;52.71;98999.78;4502445;31;20112;-82
2022/09/04 04:15:02;;;;;;;11.52;5.50;;;;;;;20.19;52.84;99002.06;4502388;31;20148;-82
2022/09/04 04:17:53;;;;;;;11.57;5.28;;;;;;;20.18;52.85;99011.06;4502510;31;20425;-81
2022/09/04 04:20:28;;;;;;;10.85;5.22;;;;;;;20.00;53.58;99013.56;4502810;31;20379;-81
2022/09/04 04:23:16;;;;;;;9.85;4.90;;;;;;;20.13;53.25;99016.00;4502413;31;20459;-83
2022/09/04 04:25:53;;;;;;;11.15;4.90;;;;;;;20.17;53.29;99028.09;4488024;31;20487;-83
2022/09/04 04:28:19;;;;;;;10.73;4.90;;;;;;;20.22;53.16;99032.06;4487946;31;20099;-82
2022/09/04 04:30:52;;;;;;;10.60;4.55;;;;;;;20.30;53.17;99041.19;4502284;31;20110;-83
2022/09/04 04:33:35;;;;;;;11.10;4.45;;;;;;;20.35;53.24;99042.47;4502382;31;20191;-82
2022/09/04 04:36:23;;;;;;;10.77;4.75;;;;;;;20.41;53.08;99049.09;4488252;31;20067;-82
2022/09/04 04:38:54;;;;;;;10.00;4.60;;;;;;;20.37;52.91;99048.53;4504250;31;20088;-82
2022/09/04 04:42:03;;;;;;;10.25;4.37;;;;;;;20.40;52.82;99050.94;4504199;31;20394;-82
2022/09/04 04:47:57;;;;;;;9.50;4.00;;;;;;;20.36;52.71;99059.38;4504222;31;20188;-82
2022/09/04 04:50:41;;;;;;;10.43;4.10;;;;;;;20.43;52.59;99057.81;4476613;31;20092;-83
2022/09/04 04:53:28;;;;;;;9.57;4.10;;;;;;;20.44;52.77;99059.53;4504128;31;20080;-83
2022/09/04 04:56:13;;;;;;;13.50;4.07;;;;;;;20.53;52.72;99058.69;4489380;31;20148;-83
2022/09/04 04:58:43;;;;;;;9.52;4.12;;;;;;;20.61;52.17;99058.03;4489971;31;20124;-83
2022/09/04 05:01:38;;;;;;;9.63;3.97;;;;;;;20.58;51.91;99066.28;4489728;31;20470;-83
2022/09/04 05:04:15;;;;;;;8.65;3.97;;;;;;;20.66;51.84;99065.63;4476465;31;20092;-83
2022/09/04 05:06:51;;;;;;;9.70;3.55;;;;;;;20.58;52.06;99077.84;4503944;31;20395;-83
2022/09/04 05:09:44;;;;;;;9.07;3.65;;;;;;;20.57;52.06;99077.97;4489939;31;20115;-83
2022/09/04 05:12:41;;;;;;;9.13;3.40;;;;;;;20.55;52.16;99075.44;4489872;31;20100;-83
2022/09/04 05:15:14;;;;;;;8.38;3.45;;;;;;;20.59;51.87;99070.63;4489627;31;20114;-84
2022/09/04 05:17:47;;;;;;;8.05;3.20;;;;;;;20.80;51.17;99065.16;4489485;31;20088;-84
2022/09/04 05:20:31;;;;;;;9.50;3.83;;;;;;;20.92;51.08;99074.75;4503942;31;20106;-84
2022/09/04 05:23:14;;;;;;;9.30;3.53;;;;;;;20.98;50.66;99081.38;4503794;31;20149;-84
2022/09/04 05:25:48;;;;;;;8.63;3.28;;;;;;;21.10;50.36;99084.75;4503826;31;20152;-84
2022/09/04 05:28:39;;;;;;;8.18;3.50;;;;;;;20.66;51.34;99084.34;4503782;31;20510;-84
2022/09/04 05:31:12;;;;;;;8.23;3.30;;;;;;;20.98;50.70;99074.19;4489424;31;20092;-84
2022/09/04 05:33:57;;;;;;;8.82;3.55;;;;;;;21.25;50.23;99072.59;4489478;31;20151;-84
2022/09/04 05:36:31;;;;;;;9.60;3.58;;;;;;;21.49;49.79;99076.63;4503703;31;20376;-84
2022/09/04 05:39:08;;;;;;;8.68;3.37;;;;;;;21.41;49.58;99088.88;4489227;31;20084;-82
2022/09/04 05:41:48;;;;;;;10.10;3.83;;;;;;;21.60;49.17;99089.84;4503931;31;20079;-82
2022/09/04 05:44:50;;;;;;;8.45;3.10;;;;;;;21.46;49.05;99085.81;4503676;31;20140;-84
2022/09/04 05:47:37;;;;;;;8.68;3.35;;;;;;;21.70;48.58;99089.81;4489313;31;20442;-84
2022/09/04 05:50:30;;;;;;;7.72;3.22;;;;;;;21.76;48.42;99089.22;4503684;31;20504;-85
2022/09/04 05:53:17;;;;;;;8.75;3.30;;;;;;;21.78;48.32;99097.97;4489114;31;20103;-84
2022/09/04 05:55:51;;;;;;;9.13;3.67;;;;;;;21.58;48.71;99095.38;4503461;31;20152;-84
2022/09/04 05:58:38;;;;;;;8.50;3.40;;;;;;;21.59;49.01;99098.88;4503608;31;20095;-84
2022/09/04 06:01:12;;;;;;;9.75;3.58;;;;;;;21.59;48.89;99102.44;4503811;31;20080;-84
2022/09/04 06:03:50;;;;;;;9.00;3.60;;;;;;;21.68;48.67;99092.66;4489417;31;20072;-85
2022/09/04 06:06:31;;;;;;;;;;;;;;;21.74;48.77;99094.72;4489714;31;20479;-84
2022/09/04 06:09:08;;;;;;;9.27;3.50;;;;;;;21.73;48.77;99100.22;4503606;31;20002;-84
2022/09/04 06:11:53;;;;;;;8.98;3.30;;;;;;;21.43;49.38;99104.00;4503457;31;20075;-84
2022/09/04 06:14:37;;;;;;;9.70;3.15;;;;;;;21.37;49.42;99105.41;4488998;31;20114;-84
2022/09/04 06:17:49;;;;;;;8.95;2.87;;;;;;;21.46;49.35;99093.87;4503412;31;20159;-85
2022/09/04 06:20:27;;;;;;;8.15;3.42;;;;;;;21.57;49.41;99098.19;4410686;32;20101;-82
2022/09/04 06:23:07;;;;;;;6.97;2.80;;;;;;;21.53;49.15;99097.62;4410526;32;20140;-83
2022/09/04 06:26:02;;;;;;;9.55;3.10;;;;;;;21.32;49.47;99105.00;4412495;32;20163;-82
2022/09/04 06:29:03;;;;;;;8.80;3.30;;;;;;;21.27;49.57;99102.75;4400781;32;20129;-83
2022/09/04 06:31:43;;;;;;;7.65;3.05;;;;;;;21.31;49.78;99101.47;4398114;32;20131;-83
2022/09/04 06:34:39;;;;;;;8.32;3.40;;;;;;;21.18;50.07;99098.25;4414951;32;20120;-83
2022/09/04 06:37:37;;;;;;;8.20;3.30;;;;;;;21.39;49.52;99098.06;4402344;32;20149;-82
2022/09/04 06:40:30;;;;;;;8.20;3.10;;;;;;;21.06;50.51;99115.50;4410254;32;20102;-83
2022/09/04 06:43:27;;;;;;;9.25;3.30;;;;;;;21.30;50.03;99106.97;4402056;32;20093;-83
2022/09/04 06:46:17;;;;;;;8.25;3.50;;;;;;;21.02;50.72;99121.12;4404276;32;20105;-83
2022/09/04 06:48:51;;;;;;;9.02;3.97;;;;;;;20.88;51.04;99120.69;4413737;32;20086;-82
2022/09/04 06:51:44;;;;;;;9.45;3.83;;;;;;;21.06;50.32;99116.31;4395407;32;20110;-82
2022/09/04 06:54:27;;;;;;;8.55;3.33;;;;;;;21.01;50.13;99118.56;4453333;31;20144;-83
2022/09/04 06:57:03;;;;;;;9.07;3.70;;;;;;;21.00;50.49;99123.09;4479945;31;20096;-82
2022/09/04 06:59:43;;;;;;;9.73;3.87;;;;;;;21.07;50.45;99111.81;4482927;31;20558;-83
2022/09/04 07:02:38;;;;;;;9.70;3.40;;;;;;;21.18;49.99;99119.69;4494652;31;20100;-83
2022/09/04 07:05:19;;;;;;;7.93;3.40;;;;;;;21.23;49.94;99125.47;4415446;32;20109;-81
2022/09/04 07:08:00;;;;;;;9.07;4.32;;;;;;;21.24;49.98;99129.00;4404312;32;20165;-81
2022/09/04 07:10:31;;;;;;;9.55;4.03;;;;;;;21.13;50.12;99136.22;4399073;32;20089;-82
2022/09/04 07:13:27;;;;;;;8.65;3.60;;;;;;;21.33;49.61;99131.66;4394021;32;20596;-81
2022/09/04 07:16:01;;;;;;;9.23;3.85;;;;;;;21.39;49.43;99141.78;4392005;32;20186;-81
2022/09/04 07:19:06;;;;;;;12.70;4.12;;;;;;;21.07;50.27;99134.06;4400195;32;20111;-81
2022/09/04 07:22:16;;;;;;;9.30;3.83;;;;;;;21.25;49.61;99128.84;4374137;32;20188;-80
2022/09/04 07:25:03;;;;;;;8.80;3.58;;;;;;;21.33;49.36;99137.00;4323355;33;20107;-80
2022/09/04 07:27:59;;;;;;;7.62;3.15;;;;;;;21.46;48.97;99142.09;4317554;33;20133;-82
2022/09/04 07:30:26;;;;;;;8.25;3.50;;;;;;;21.63;48.99;99139.66;4323235;33;20520;-81
2022/09/04 07:33:03;;;;;;;10.70;4.03;;;;;;;21.71;48.33;99134.41;4312844;33;20095;-82
2022/09/04 07:35:33;;;;;;;9.18;3.78;;;;;;;21.95;48.26;99140.09;4316632;33;20528;-83
2022/09/04 07:38:16;;;;;;;9.65;3.55;;;;;;;22.05;47.85;99141.91;4313700;33;20135;-83
2022/09/04 07:40:45;;;;;;;8.35;3.40;;;;;;;22.14;47.63;99141.00;4324591;33;20130;-82
2022/09/04 07:43:22;;;;;;;11.38;3.70;;;;;;;22.40;47.12;99143.84;4331871;33;20530;-83
2022/09/04 07:46:12;;;;;;;9.43;4.03;;;;;;;22.50;46.77;99155.37;4346977;32;20158;-83
2022/09/04 07:48:43;;;;;;;9.25;3.85;;;;;;;22.59;45.94;99150.94;4356575;32;20107;-83
2022/09/04 07:51:20;;;;;;;8.75;3.50;;;;;;;22.27;46.71;99151.41;4334881;33;20134;-81
2022/09/04 07:54:07;;;;;;;8.85;3.92;;;;;;;22.36;46.92;99154.03;4333587;33;20129;-81
2022/09/04 07:56:53;;;;;;;8.70;3.40;;;;;;;22.50;46.32;99155.37;4364608;32;20119;-79
2022/09/04 07:59:28;;;;;;;8.38;3.67;;;;;;;22.53;46.37;99156.91;4416564;32;20145;-81
2022/09/04 08:02:10;;;;;;;8.15;3.20;;;;;;;22.50;46.65;99155.37;4441292;32;20171;-81
2022/09/04 08:04:57;;;;;;;8.00;3.10;;;;;;;22.72;46.33;99151.41;4481342;31;20772;-80
2022/09/04 08:07:37;;;;;;;8.85;3.55;;;;;;;22.79;45.70;99154.31;4489893;31;20105;-79
2022/09/04 08:10:31;;;;;;;8.48;3.00;;;;;;;22.80;45.50;99152.50;4487618;31;20100;-80
2022/09/04 08:13:21;;;;;;;8.45;3.22;;;;;;;22.71;45.54;99165.81;4483780;31;20095;-81
2022/09/04 08:16:11;;;;;;;9.25;3.00;;;;;;;22.86;45.38;99168.84;4489545;31;20104;-81
2022/09/04 08:18:44;;;;;;;9.15;3.50;;;;;;;22.94;44.79;99176.13;4472834;31;20134;-81
2022/09/04 08:21:30;;;;;;;8.45;3.50;;;;;;;23.02;44.88;99176.19;4461918;31;20092;-81
2022/09/04 08:24:23;;;;;;;8.15;3.00;;;;;;;23.14;44.71;99176.84;4463464;32;20183;-82
2022/09/04 08:27:22;;;;;;;8.75;3.55;;;;;;;23.23;44.26;99180.44;4494304;31;20285;-81
2022/09/04 08:30:07;;;;;;;12.57;3.60;;;;;;;23.31;43.88;99175.12;4470927;32;20178;-81
2022/09/04 08:33:10;;;;;;;7.57;3.37;;;;;;;22.75;45.99;99179.78;4484510;31;20441;-81
2022/09/04 08:36:16;;;;;;;8.18;3.20;;;;;;;23.10;44.84;99173.62;4485652;31;20448;-81
2022/09/04 08:39:01;;;;;;;7.90;3.08;;;;;;;23.24;44.40;99180.31;4478515;32;20092;-81
2022/09/04 08:41:35;;;;;;;7.55;2.85;;;;;;;23.31;44.04;99183.19;4482520;31;20136;-80
2022/09/04 08:44:19;;;;;;;8.38;3.50;;;;;;;23.34;44.43;99186.41;4497147;31;20118;-81
2022/09/04 08:47:00;;;;;;;8.82;2.95;;;;;;;23.60;43.78;99185.59;4481224;32;20171;-81
2022/09/04 08:49:28;;;;;;;9.15;3.62;;;;;;;23.84;43.25;99187.66;4482983;31;20467;-81
2022/09/04 08:52:13;;;;;;;12.23;3.22;;;;;;;23.62;43.27;99188.13;4482349;32;20115;-81
2022/09/04 08:54:48;;;;;;;8.55;3.20;;;;;;;23.89;43.02;99189.84;4481788;32;20540;-82
2022/09/04 08:57:27;;;;;;;7.20;2.90;;;;;;;24.05;42.89;99191.78;4494619;31;20120;-81
2022/09/04 09:00:15;;;;;;;8.73;3.47;;;;;;;24.31;42.40;99184.50;4486614;31;20122;-82
2022/09/04 09:03:09;;;;;;;8.35;3.47;;;;;;;24.03;42.76;99189.28;4482486;32;20178;-76
2022/09/04 09:06:06;;;;;;;7.65;3.42;;;;;;;23.96;43.34;99193.59;4471045;31;20104;-79
2022/09/04 09:08:53;;;;;;;7.97;3.10;;;;;;;23.68;43.27;99192.87;4474903;32;20096;-79
2022/09/04 09:11:24;;;;;;;8.48;3.55;;;;;;;23.77;43.36;99199.16;4486522;31;20203;-79
2022/09/04 09:14:27;;;;;;;9.35;4.00;;;;;;;23.93;42.81;99193.91;4485718;31;20151;-79
2022/09/04 09:17:35;;;;;;;9.23;3.95;;;;;;;23.69;43.41;99192.72;4485470;31;20088;-80
2022/09/04 09:20:25;;;;;;;8.63;3.80;;;;;;;23.91;43.13;99204.84;4428270;32;20155;-80
2022/09/04 09:23:15;;;;;;;9.43;3.70;;;;;;;23.67;44.05;99196.59;4421189;32;20468;-80
2022/09/04 09:25:44;;;;;;;9.07;3.70;;;;;;;24.12;43.02;99200.91;4418682;32;20488;-80
2022/09/04 09:28:31;;;;;;;9.68;3.72;;;;;;;24.25;42.57;99200.47;4419858;32;20097;-79
2022/09/04 09:31:05;;;;;;;8.10;3.65;;;;;;;24.25;42.56;99208.56;4418023;32;20161;-80
2022/09/04 09:34:04;;;;;;;8.60;3.37;;;;;;;24.47;42.37;99199.91;4418852;32;20149;-80
2022/09/04 09:36:51;;;;;;;9.27;3.50;;;;;;;24.65;42.63;99207.91;4360510;32;20178;-80
2022/09/04 09:39:17;;;;;;;9.18;3.80;;;;;;;24.90;41.48;99200.72;4363677;32;21021;-80
2022/09/04 09:41:58;;;;;;;9.30;3.70;;;;;;;25.16;40.90;99193.50;4360484;32;20126;-80
2022/09/04 09:44:51;;;;;;;11.88;3.70;;;;;;;25.36;40.33;99196.72;4369059;32;20233;-80
2022/09/04 09:47:38;;;;;;;9.15;3.87;;;;;;;25.49;40.20;99200.59;4373616;32;20134;-81
2022/09/04 09:50:22;;;;;;;9.10;3.75;;;;;;;25.55;40.32;99204.47;4362640;32;20099;-80
2022/09/04 09:53:08;;;;;;;8.25;3.70;;;;;;;25.33;40.31;99197.91;4361027;32;20094;-80
2022/09/04 09:55:56;;;;;;;9.27;3.87;;;;;;;25.47;40.03;99196.38;4363741;32;20103;-79
2022/09/04 09:58:43;;;;;;;8.50;4.00;;;;;;;25.24;40.40;99207.00;4398202;32;20189;-80
2022/09/04 10:01:23;;;;;;;8.30;3.30;;;;;;;25.25;40.31;99196.06;4395920;32;20114;-80
2022/09/04 10:04:14;;;;;;;8.90;3.50;;;;;;;25.27;40.71;99199.44;4420529;32;20093;-80
2022/09/04 10:07:20;;;;;;;9.73;3.70;;;;;;;25.18;41.09;99200.41;4411220;32;20109;-80
2022/09/04 10:10:00;;;;;;;8.70;3.75;;;;;;;25.18;41.24;99202.25;4420559;32;20132;-80
2022/09/04 10:12:38;;;;;;;9.35;3.50;;;;;;;25.04;40.98;99199.22;4414935;32;20145;-80
2022/09/04 10:15:13;;;;;;;8.40;3.53;;;;;;;24.93;41.49;99211.16;4496749;31;20088;-81
2022/09/04 10:17:56;;;;;;;9.30;3.85;;;;;;;24.92;41.89;99212.16;4488370;31;20130;-82
2022/09/04 10:20:37;;;;;;;9.13;3.65;;;;;;;24.89;41.69;99214.34;4480424;32;20181;-81
2022/09/04 10:23:09;;;;;;;9.07;3.60;;;;;;;24.62;41.91;99210.91;4485071;32;20100;-81
2022/09/04 10:25:56;;;;;;;9.88;3.80;;;;;;;24.09;43.55;99218.22;4479741;31;20112;-81
2022/09/04 10:28:58;;;;;;;9.93;4.00;;;;;;;24.05;43.85;99216.00;4495570;31;20143;-81
2022/09/04 10:32:01;;;;;;;9.65;3.72;;;;;;;24.17;43.64;99206.66;4408216;32;20138;-81
2022/09/04 10:34:45;;;;;;;9.18;3.60;;;;;;;24.32;43.41;99204.22;4366692;32;20137;-81
2022/09/04 10:37:49;;;;;;;10.15;3.90;;;;;;;24.42;43.40;99204.09;4372187;32;20589;-80
2022/09/04 10:40:43;;;;;;;8.57;3.47;;;;;;;24.51;43.25;99203.97;4315805;33;20556;-80
2022/09/04 10:43:34;;;;;;;9.30;3.45;;;;;;;24.54;43.27;99210.88;4315078;33;20115;-80
2022/09/04 10:46:32;;;;;;;7.95;3.40;;;;;;;24.60;43.00;99210.22;4303534;33;20112;-81
2022/09/04 10:49:14;;;;;;;9.48;3.50;;;;;;;24.65;42.90;99217.84;4316719;33;20504;-80
2022/09/04 10:52:04;;;;;;;8.70;3.35;;;;;;;24.70;42.84;99212.78;4302785;33;20175;-83
2022/09/04 10:54:49;;;;;;;9.05;3.87;;;;;;;24.75;42.56;99206.91;4306950;33;20847;-82
2022/09/04 10:57:36;;;;;;;9.02;3.90;;;;;;;24.65;42.68;99207.06;4313167;33;20564;-82
2022/09/04 11:00:17;;;;;;;8.88;3.42;;;;;;;24.80;42.70;99208.13;4300423;33;20536;-82
2022/09/04 11:03:10;;;;;;;8.30;3.58;;;;;;;24.94;42.54;99209.31;4296670;33;20120;-82
2022/09/04 11:05:36;;;;;;;10.52;3.85;;;;;;;25.00;42.33;99214.03;4316326;33;20142;-81
2022/09/04 11:08:17;;;;;;;7.78;3.53;;;;;;;24.95;42.31;99210.16;4339830;33;20139;-82
2022/09/04 11:10:57;;;;;;;10.30;3.78;;;;;;;25.14;41.88;99214.38;4346572;32;20114;-82
2022/09/04 11:14:02;;;;;;;10.02;4.35;;;;;;;25.16;42.00;99215.06;4390904;32;20090;-82
2022/09/04 11:16:39;;;;;;;10.82;4.18;;;;;;;25.21;41.46;99215.41;4408678;32;20133;-82
2022/09/04 11:19:13;;;;;;;9.47;3.77;;;;;;;25.49;40.97;99213.25;4443601;32;20188;-81
2022/09/04 11:22:00;;;;;;;9.02;4.03;;;;;;;25.75;40.43;99207.66;4429258;32;20109;-82
2022/09/04 11:25:00;;;;;;;9.18;3.83;;;;;;;25.85;40.10;99218.28;4442953;32;20156;-83
2022/09/04 11:27:57;;;;;;;10.32;3.67;;;;;;;25.69;40.75;99211.91;4449227;32;20128;-82
2022/09/04 11:30:26;;;;;;;9.27;3.78;;;;;;;25.84;40.66;99211.19;4450500;31;20108;-85
2022/09/04 11:33:35;;;;;;;10.85;3.83;;;;;;;25.91;40.86;99209.53;4490684;31;20145;-86
2022/09/04 11:36:38;;;;;;;8.32;3.40;;;;;;;26.10;40.21;99208.28;4412702;32;20442;-79
2022/09/04 11:39:15;;;;;;;9.77;3.40;;;;;;;26.25;40.29;99213.78;4423291;32;20166;-79
2022/09/04 11:41:59;;;;;;;8.13;3.50;;;;;;;26.33;39.70;99211.09;4418835;32;20176;-80
2022/09/04 11:44:41;;;;;;;9.32;3.30;;;;;;;26.34;39.85;99217.31;4425722;32;20101;-80
2022/09/04 11:47:33;;;;;;;10.65;3.50;;;;;;;26.50;39.09;99209.13;4422940;32;20144;-80
2022/09/04 11:50:13;;;;;;;10.40;3.70;;;;;;;26.56;39.04;99211.16;4412663;32;20116;-79
2022/09/04 11:52:54;;;;;;;9.13;3.60;;;;;;;26.45;38.90;99203.44;4414489;32;20285;-80
2022/09/04 11:55:56;;;;;;;10.80;3.40;;;;;;;26.64;38.76;99205.72;4431762;32;20201;-79
2022/09/04 11:58:59;;;;;;;9.93;3.47;;;;;;;26.54;39.35;99201.53;4426437;32;20160;-79
2022/09/04 12:01:24;;;;;;;7.75;3.25;;;;;;;26.72;38.80;99199.44;4422879;32;20303;-80
2022/09/04 12:04:01;;;;;;;9.18;3.78;;;;;;;26.77;38.76;99202.47;4430530;32;20113;-80
2022/09/04 12:06:52;;;;;;;9.15;3.87;;;;;;;26.88;38.53;99196.62;4414644;32;20731;-80
2022/09/04 12:09:45;;;;;;;10.40;3.80;;;;;;;27.01;37.97;99187.94;4421674;32;20116;-80
2022/09/04 12:12:21;;;;;;;11.27;3.95;;;;;;;26.99;38.32;99189.16;4450496;32;20100;-79
2022/09/04 12:15:14;;;;;;;10.68;4.00;;;;;;;26.65;38.54;99188.47;4492163;31;20123;-80
2022/09/04 12:18:13;;;;;;;10.07;4.12;;;;;;;26.57;38.62;99187.66;4485527;31;20143;-79
2022/09/04 12:20:50;;;;;;;8.50;4.00;;;;;;;26.70;38.96;99184.44;4495679;31;20119;-80
2022/09/04 12:23:24;;;;;;;8.98;3.72;;;;;;;26.65;39.09;99184.94;4486920;31;20422;-80
2022/09/04 12:26:08;;;;;;;7.90;3.62;;;;;;;26.78;39.07;99185.22;4483940;32;20447;-80
2022/09/04 12:28:55;;;;;;;9.98;3.72;;;;;;;26.72;39.32;99185.09;4482897;31;20447;-79
2022/09/04 12:31:58;;;;;;;9.10;4.37;;;;;;;26.51;39.60;99180.28;4497979;31;20084;-80
2022/09/04 12:34:44;;;;;;;10.70;4.05;;;;;;;26.48;39.56;99179.63;4490986;31;20100;-80
2022/09/04 12:37:18;;;;;;;10.52;3.50;;;;;;;26.48;39.39;99182.31;4480659;32;21548;-80
2022/09/04 12:40:08;;;;;;;9.07;4.12;;;;;;;26.57;39.89;99184.97;4482272;32;20085;-80
2022/09/04 12:42:43;;;;;;;9.63;3.75;;;;;;;26.44;39.31;99186.41;4475933;32;20096;-81
2022/09/04 12:45:43;;;;;;;8.05;3.78;;;;;;;26.54;39.39;99180.78;4495013;31;20390;-81
2022/09/04 12:48:15;;;;;;;;;;;;;;;26.91;38.46;99171.13;4468445;32;20467;-81
2022/09/04 12:50:46;;;;;;;10.63;3.47;;;;;;;26.82;38.15;99166.78;4483860;32;20046;-80
2022/09/04 12:53:38;;;;;;;9.02;3.58;;;;;;;27.11;38.57;99173.34;4496796;31;20163;-80
2022/09/04 12:56:14;;;;;;;8.73;3.60;;;;;;;26.96;37.57;99178.66;4482568;32;20460;-81